PKWA/KWA METAR and TAF weather

Enter ICAO airport designator
Station Type Date Time Source
PKWA METAR 2019/05/23 19:00 UTC NOAA

PKWA 231900Z AUTO 06003KT 10SM CLR 27/26 A2986 RMK AO2 T02660263


Station Type Date Time Source
PKWA Decoded METAR 2019/05/23 19:00 UTC NOAA

Kwajalein, Bucholz AAF, Kwajalein KMR ATOL Airport, Marshall Islands (PKWA) 08-43N 167-44E 2M
May 23, 2019 - 03:00 PM EDT / 2019.05.23 1900 UTC
Wind: from the ENE (060 degrees) at 3 MPH (3 KT):0
Visibility: 10 mile(s):0
Sky conditions: clear
Temperature: 79.9 F (26.6 C)
Dew Point: 79.3 F (26.3 C)
Relative Humidity: 98%
Pressure (altimeter): 29.86 in. Hg (1011 hPa)
ob: PKWA 231900Z AUTO 06003KT 10SM CLR 27/26 A2986 RMK AO2 T02660263
cycle: 19

Station Type Date Time Source
PKWA TAF 2019/05/23 18:36 UTC NOAA

TAF PKWA 231731Z 2318/2418 09008KT P6SM SCT025

Example: see airport list